Time;durP1;ratioP1;P1;durP2;ratioP2;P2;SDS_P1;SDS_P2;PMS_P1;PMS_P2;Temp;Humidity;BMP_temperature;BMP_pressure;BME280_temperature;BME280_humidity;BME280_pressure;Samples;Min_cycle;Max_cycle;Signal;HPM_P1;HPM_P2
2022/07/21 00:00:05;;;;;;;7.45;4.65;;;;;;;;;;524661;28;1386;-89
2022/07/21 00:00:23;;;;;;;8.18;4.68;;;;;;;;;;523149;28;1325;-90
2022/07/21 00:00:38;;;;;;;7.43;4.40;;;;;;;;;;522522;28;1404;-89
2022/07/21 00:00:54;;;;;;;7.57;4.53;;;;;;;;;;522654;28;1157;-89
2022/07/21 00:01:10;;;;;;;7.90;4.70;;;;;;;;;;522312;28;1348;-89
2022/07/21 00:01:25;;;;;;;6.85;4.55;;;;;;;;;;522376;28;813;-88
2022/07/21 00:01:41;;;;;;;6.03;4.47;;;;;;;;;;524039;28;1355;-87
2022/07/21 00:01:56;;;;;;;5.77;4.43;;;;;;;;;;521733;28;1150;-87
2022/07/21 00:02:12;;;;;;;6.17;4.57;;;;;;;;;;521530;28;1210;-87
2022/07/21 00:02:27;;;;;;;7.65;4.80;;;;;;;;;;521606;28;1037;-89
2022/07/21 00:02:42;;;;;;;7.83;4.83;;;;;;;;;;519931;28;1327;-89
2022/07/21 00:02:58;;;;;;;7.67;4.60;;;;;;;;;;522788;28;836;-87
2022/07/21 00:03:14;;;;;;;7.47;4.63;;;;;;;;;;523965;28;1002;-89
2022/07/21 00:03:29;;;;;;;6.80;4.77;;;;;;;;;;522679;28;1168;-87
2022/07/21 00:03:45;;;;;;;6.20;4.70;;;;;;;;;;524925;28;946;-89
2022/07/21 00:04:00;;;;;;;5.82;4.35;;;;;;;;;;524395;28;1292;-88
2022/07/21 00:04:16;;;;;;;6.05;4.30;;;;;;;;;;524014;28;1306;-89
2022/07/21 00:04:31;;;;;;;6.30;4.50;;;;;;;;;;524443;28;872;-89
2022/07/21 00:04:47;;;;;;;5.75;4.50;;;;;;;;;;526306;28;800;-89
2022/07/21 00:05:03;;;;;;;5.27;4.57;;;;;;;;;;524260;28;1336;-89
2022/07/21 00:05:19;;;;;;;5.57;4.65;;;;;;;;;;524495;28;1283;-89
2022/07/21 00:05:34;;;;;;;6.50;4.40;;;;;;;;;;524803;28;1392;-88
2022/07/21 00:05:50;;;;;;;5.93;4.33;;;;;;;;;;524812;28;1445;-89
2022/07/21 00:06:06;;;;;;;5.95;4.50;;;;;;;;;;526472;28;895;-89
2022/07/21 00:06:21;;;;;;;5.85;4.47;;;;;;;;;;526229;28;1427;-89
2022/07/21 00:06:36;;;;;;;5.43;4.33;;;;;;;;;;524258;28;1255;-88
2022/07/21 00:06:52;;;;;;;5.73;4.27;;;;;;;;;;524728;28;1300;-89
2022/07/21 00:07:07;;;;;;;7.15;4.53;;;;;;;;;;526300;28;1355;-89
2022/07/21 00:07:23;;;;;;;7.70;4.72;;;;;;;;;;524538;28;1195;-89
2022/07/21 00:07:38;;;;;;;6.80;4.80;;;;;;;;;;526373;28;807;-89
2022/07/21 00:07:55;;;;;;;8.00;4.83;;;;;;;;;;524130;28;1102;-89
2022/07/21 00:08:10;;;;;;;7.63;4.80;;;;;;;;;;525193;28;804;-90
2022/07/21 00:08:26;;;;;;;6.17;4.70;;;;;;;;;;522618;28;1254;-88
2022/07/21 00:08:41;;;;;;;5.85;4.45;;;;;;;;;;524260;28;1290;-89
2022/07/21 00:08:56;;;;;;;5.87;4.47;;;;;;;;;;522333;28;1160;-89
2022/07/21 00:09:13;;;;;;;6.75;4.82;;;;;;;;;;522362;28;1167;-89
2022/07/21 00:09:28;;;;;;;6.72;4.65;;;;;;;;;;524177;28;995;-90
2022/07/21 00:09:43;;;;;;;6.97;4.67;;;;;;;;;;524733;28;844;-88
2022/07/21 00:09:59;;;;;;;6.77;4.63;;;;;;;;;;524415;28;1180;-89
2022/07/21 00:10:15;;;;;;;6.30;4.38;;;;;;;;;;524638;28;832;-89
2022/07/21 00:10:31;;;;;;;6.50;4.50;;;;;;;;;;525076;28;1255;-90
2022/07/21 00:10:46;;;;;;;7.28;4.82;;;;;;;;;;528018;28;891;-90
2022/07/21 00:11:02;;;;;;;7.63;4.80;;;;;;;;;;529251;28;1314;-88
2022/07/21 00:11:17;;;;;;;7.15;4.50;;;;;;;;;;531128;27;882;-89
2022/07/21 00:11:33;;;;;;;7.35;4.50;;;;;;;;;;529070;28;1192;-88
2022/07/21 00:11:48;;;;;;;8.23;4.70;;;;;;;;;;526761;28;1312;-89
2022/07/21 00:12:04;;;;;;;7.33;4.70;;;;;;;;;;526727;28;1397;-89
2022/07/21 00:12:20;;;;;;;6.88;4.68;;;;;;;;;;527334;28;1058;-89
2022/07/21 00:12:36;;;;;;;6.38;4.50;;;;;;;;;;526572;28;1157;-90
2022/07/21 00:12:53;;;;;;;6.10;4.50;;;;;;;;;;524424;28;1796;-88
2022/07/21 00:13:08;;;;;;;7.10;4.70;;;;;;;;;;524583;28;824;-87
2022/07/21 00:13:24;;;;;;;6.50;4.67;;;;;;;;;;525782;28;1329;-90
2022/07/21 00:13:40;;;;;;;6.05;4.50;;;;;;;;;;524625;28;1262;-89
2022/07/21 00:13:55;;;;;;;6.32;4.45;;;;;;;;;;524629;28;796;-89
2022/07/21 00:14:12;;;;;;;7.07;5.00;;;;;;;;;;522517;28;1172;-90
2022/07/21 00:14:27;;;;;;;7.30;5.20;;;;;;;;;;523450;28;852;-90
2022/07/21 00:14:43;;;;;;;6.13;4.90;;;;;;;;;;525506;28;959;-90
2022/07/21 00:14:58;;;;;;;6.15;4.88;;;;;;;;;;524537;28;1415;-90
2022/07/21 00:15:15;;;;;;;5.63;4.70;;;;;;;;;;525279;28;1154;-89
2022/07/21 00:15:32;;;;;;;6.32;4.70;;;;;;;;;;525585;28;1324;-90
2022/07/21 00:15:48;;;;;;;6.82;4.60;;;;;;;;;;527391;28;828;-90
2022/07/21 00:16:04;;;;;;;8.25;4.68;;;;;;;;;;528071;28;1104;-90
2022/07/21 00:16:20;;;;;;;7.72;4.75;;;;;;;;;;529093;28;1092;-90
2022/07/21 00:16:36;;;;;;;5.70;4.60;;;;;;;;;;526984;28;1139;-91
2022/07/21 00:16:51;;;;;;;5.22;4.57;;;;;;;;;;525738;28;1261;-90
2022/07/21 00:17:07;;;;;;;5.67;4.60;;;;;;;;;;527042;28;1176;-89
2022/07/21 00:17:23;;;;;;;5.45;4.43;;;;;;;;;;526972;28;835;-90
2022/07/21 00:17:38;;;;;;;5.53;4.33;;;;;;;;;;524497;28;1265;-89
2022/07/21 00:17:54;;;;;;;6.25;4.43;;;;;;;;;;522422;28;1296;-90
2022/07/21 00:18:09;;;;;;;6.27;4.37;;;;;;;;;;522588;28;827;-90
2022/07/21 00:18:27;;;;;;;5.78;4.55;;;;;;;;;;523555;28;1977;-88
2022/07/21 00:18:43;;;;;;;6.47;4.68;;;;;;;;;;525452;28;1242;-89
2022/07/21 00:18:59;;;;;;;6.68;4.40;;;;;;;;;;525572;28;1180;-89
2022/07/21 00:19:15;;;;;;;5.97;4.50;;;;;;;;;;527255;28;1211;-90
2022/07/21 00:19:30;;;;;;;6.03;4.63;;;;;;;;;;528184;28;840;-90
2022/07/21 00:19:46;;;;;;;6.65;4.80;;;;;;;;;;529298;28;994;-90
2022/07/21 00:20:02;;;;;;;6.27;4.70;;;;;;;;;;529238;28;1412;-89
2022/07/21 00:20:18;;;;;;;5.82;4.57;;;;;;;;;;527079;28;1318;-90
2022/07/21 00:20:34;;;;;;;5.15;4.63;;;;;;;;;;527308;28;1238;-89
2022/07/21 00:20:50;;;;;;;5.28;4.65;;;;;;;;;;527449;28;867;-89
2022/07/21 00:21:05;;;;;;;4.90;4.33;;;;;;;;;;525776;28;1364;-90
2022/07/21 00:21:20;;;;;;;5.20;4.50;;;;;;;;;;525560;28;832;-90
2022/07/21 00:21:36;;;;;;;5.70;4.70;;;;;;;;;;525229;28;1162;-89
2022/07/21 00:21:52;;;;;;;5.00;4.50;;;;;;;;;;526195;28;1026;-90
2022/07/21 00:22:07;;;;;;;5.13;4.40;;;;;;;;;;527444;28;1464;-89
2022/07/21 00:22:23;;;;;;;5.90;4.53;;;;;;;;;;528172;28;1021;-90
2022/07/21 00:22:39;;;;;;;5.43;4.50;;;;;;;;;;529767;28;1061;-89
2022/07/21 00:22:54;;;;;;;6.10;4.68;;;;;;;;;;529788;28;1147;-90
2022/07/21 00:23:10;;;;;;;6.72;4.68;;;;;;;;;;529777;28;1021;-90
2022/07/21 00:23:26;;;;;;;6.20;4.67;;;;;;;;;;530595;27;943;-89
2022/07/21 00:23:41;;;;;;;5.63;4.60;;;;;;;;;;530018;28;1443;-89
2022/07/21 00:23:57;;;;;;;6.07;4.57;;;;;;;;;;528025;28;1166;-89
2022/07/21 00:24:12;;;;;;;5.93;4.60;;;;;;;;;;529724;28;990;-90
2022/07/21 00:24:27;;;;;;;5.97;4.70;;;;;;;;;;529634;28;808;-90
2022/07/21 00:24:43;;;;;;;6.80;4.95;;;;;;;;;;529295;28;1277;-89
2022/07/21 00:24:58;;;;;;;6.50;5.13;;;;;;;;;;527201;28;1165;-90
2022/07/21 00:25:14;;;;;;;6.22;4.95;;;;;;;;;;525068;28;1410;-90
2022/07/21 00:25:30;;;;;;;6.25;4.72;;;;;;;;;;525469;28;1498;-89
2022/07/21 00:25:45;;;;;;;7.17;4.80;;;;;;;;;;527306;28;1078;-88
2022/07/21 00:26:01;;;;;;;7.53;5.10;;;;;;;;;;526813;28;1195;-88
2022/07/21 00:26:16;;;;;;;7.40;5.35;;;;;;;;;;525418;28;1220;-89
2022/07/21 00:26:32;;;;;;;7.23;5.27;;;;;;;;;;526866;28;1255;-90
2022/07/21 00:26:47;;;;;;;7.43;5.50;;;;;;;;;;526779;28;1366;-89
2022/07/21 00:27:03;;;;;;;7.53;5.63;;;;;;;;;;526358;28;1238;-89
2022/07/21 00:27:18;;;;;;;7.95;5.65;;;;;;;;;;526195;28;844;-89
2022/07/21 00:27:33;;;;;;;9.47;5.93;;;;;;;;;;526607;28;1259;-88
2022/07/21 00:27:49;;;;;;;9.48;6.00;;;;;;;;;;524515;28;1159;-89
2022/07/21 00:28:05;;;;;;;8.43;5.90;;;;;;;;;;522429;28;1239;-89
2022/07/21 00:28:20;;;;;;;7.65;5.70;;;;;;;;;;522897;28;1007;-90
2022/07/21 00:28:36;;;;;;;7.88;5.88;;;;;;;;;;522955;28;1275;-89
2022/07/21 00:28:51;;;;;;;9.03;6.10;;;;;;;;;;523911;28;1458;-89
2022/07/21 00:29:07;;;;;;;8.73;6.03;;;;;;;;;;524776;28;1282;-90
2022/07/21 00:29:22;;;;;;;8.87;6.17;;;;;;;;;;524726;28;1186;-88
2022/07/21 00:29:38;;;;;;;8.40;6.10;;;;;;;;;;522468;28;1308;-90
2022/07/21 00:29:53;;;;;;;7.27;6.03;;;;;;;;;;522900;28;879;-90
2022/07/21 00:30:09;;;;;;;7.10;6.07;;;;;;;;;;524519;28;880;-90
2022/07/21 00:30:25;;;;;;;7.53;5.75;;;;;;;;;;522689;28;1215;-90
2022/07/21 00:30:40;;;;;;;8.20;5.80;;;;;;;;;;525013;28;1271;-90
2022/07/21 00:30:56;;;;;;;8.55;6.10;;;;;;;;;;526672;28;1234;-90
2022/07/21 00:31:11;;;;;;;7.90;6.07;;;;;;;;;;527443;28;1261;-90
2022/07/21 00:31:27;;;;;;;6.80;5.90;;;;;;;;;;528036;28;1178;-91
2022/07/21 00:31:42;;;;;;;7.38;5.68;;;;;;;;;;528994;28;1316;-90
2022/07/21 00:31:59;;;;;;;8.17;5.67;;;;;;;;;;526857;28;1158;-91
2022/07/21 00:32:15;;;;;;;8.18;5.90;;;;;;;;;;523289;28;1396;-91
2022/07/21 00:32:31;;;;;;;8.63;5.87;;;;;;;;;;523155;28;1039;-91
2022/07/21 00:32:47;;;;;;;8.45;5.95;;;;;;;;;;521744;28;1183;-90
2022/07/21 00:33:02;;;;;;;8.20;5.95;;;;;;;;;;521079;28;1165;-91
2022/07/21 00:33:18;;;;;;;9.55;5.93;;;;;;;;;;523114;28;1175;-89
2022/07/21 00:33:33;;;;;;;9.77;6.03;;;;;;;;;;525199;28;1165;-90
2022/07/21 00:33:51;;;;;;;9.50;6.20;;;;;;;;;;525375;28;1375;-90
2022/07/21 00:34:06;;;;;;;9.60;6.10;;;;;;;;;;523079;28;1335;-90
2022/07/21 00:34:21;;;;;;;8.57;6.07;;;;;;;;;;525530;28;1137;-90
2022/07/21 00:34:37;;;;;;;10.33;6.23;;;;;;;;;;527109;28;1189;-91
2022/07/21 00:34:52;;;;;;;10.02;6.07;;;;;;;;;;525236;28;1238;-88
2022/07/21 00:35:09;;;;;;;8.57;5.97;;;;;;;;;;524907;28;860;-91
2022/07/21 00:35:24;;;;;;;10.02;6.57;;;;;;;;;;527166;28;1236;-90
2022/07/21 00:35:39;;;;;;;10.90;6.80;;;;;;;;;;527264;28;1230;-91
2022/07/21 00:35:55;;;;;;;10.00;6.10;;;;;;;;;;527106;28;1366;-91
2022/07/21 00:36:10;;;;;;;10.82;6.40;;;;;;;;;;524941;28;1333;-90
2022/07/21 00:36:25;;;;;;;10.37;6.87;;;;;;;;;;525355;28;780;-90
2022/07/21 00:36:41;;;;;;;8.75;6.38;;;;;;;;;;524932;28;1183;-90
2022/07/21 00:36:57;;;;;;;9.67;6.13;;;;;;;;;;526639;28;768;-89
2022/07/21 00:37:12;;;;;;;8.80;6.38;;;;;;;;;;526608;28;1308;-91
2022/07/21 00:37:27;;;;;;;9.33;6.63;;;;;;;;;;526611;28;994;-90
2022/07/21 00:37:43;;;;;;;10.43;6.73;;;;;;;;;;526872;28;986;-91
2022/07/21 00:37:59;;;;;;;9.65;6.55;;;;;;;;;;526811;28;1263;-91
2022/07/21 00:38:14;;;;;;;9.80;6.40;;;;;;;;;;528592;28;1429;-91
2022/07/21 00:38:29;;;;;;;9.70;6.63;;;;;;;;;;528668;28;1898;-91
2022/07/21 00:38:45;;;;;;;9.10;6.50;;;;;;;;;;529027;28;1045;-91
2022/07/21 00:39:00;;;;;;;8.88;6.40;;;;;;;;;;527602;28;1284;-90
2022/07/21 00:39:16;;;;;;;8.70;6.67;;;;;;;;;;526697;28;1294;-91
2022/07/21 00:39:31;;;;;;;7.93;6.70;;;;;;;;;;526863;28;1189;-90
2022/07/21 00:39:47;;;;;;;9.53;6.83;;;;;;;;;;527168;28;780;-92
2022/07/21 00:40:03;;;;;;;10.35;6.97;;;;;;;;;;526885;28;1253;-92
2022/07/21 00:40:19;;;;;;;9.27;6.78;;;;;;;;;;527158;28;1018;-90
2022/07/21 00:40:34;;;;;;;9.10;6.55;;;;;;;;;;526893;28;805;-91
2022/07/21 00:40:50;;;;;;;9.63;7.00;;;;;;;;;;525089;28;1218;-89
2022/07/21 00:41:05;;;;;;;10.23;7.47;;;;;;;;;;525263;28;1430;-92
2022/07/21 00:41:20;;;;;;;10.25;7.15;;;;;;;;;;527296;28;1273;-91
2022/07/21 00:41:36;;;;;;;9.63;7.00;;;;;;;;;;529771;28;955;-91
2022/07/21 00:41:51;;;;;;;8.52;6.90;;;;;;;;;;527119;28;1276;-90
2022/07/21 00:42:07;;;;;;;8.30;6.77;;;;;;;;;;526840;28;1006;-90
2022/07/21 00:42:24;;;;;;;8.60;6.97;;;;;;;;;;526836;28;808;-91
2022/07/21 00:42:40;;;;;;;8.25;7.00;;;;;;;;;;527122;28;1210;-88
2022/07/21 00:42:56;;;;;;;8.70;7.20;;;;;;;;;;526674;28;1306;-89
2022/07/21 00:43:12;;;;;;;8.75;7.07;;;;;;;;;;527291;28;903;-90
2022/07/21 00:43:27;;;;;;;7.63;6.72;;;;;;;;;;526546;28;1236;-90
2022/07/21 00:43:43;;;;;;;7.83;6.87;;;;;;;;;;524430;28;1139;-90
2022/07/21 00:43:58;;;;;;;8.25;7.10;;;;;;;;;;522252;28;1283;-91
2022/07/21 00:44:25;;;;;;;8.30;6.90;;;;;;;;;;520910;28;1247;-90
2022/07/21 00:44:40;;;;;;;7.82;6.65;;;;;;;;;;522139;28;825;-89
2022/07/21 00:44:56;;;;;;;8.27;6.47;;;;;;;;;;522567;28;1366;-90
2022/07/21 00:45:12;;;;;;;8.70;6.70;;;;;;;;;;522246;28;884;-90
2022/07/21 00:45:28;;;;;;;8.75;6.50;;;;;;;;;;522126;28;1191;-91
2022/07/21 00:45:43;;;;;;;8.33;6.10;;;;;;;;;;522401;28;1467;-90
2022/07/21 00:45:58;;;;;;;8.35;6.50;;;;;;;;;;524418;28;955;-90
2022/07/21 00:46:14;;;;;;;8.93;6.57;;;;;;;;;;524442;28;1376;-91
2022/07/21 00:46:30;;;;;;;9.90;6.40;;;;;;;;;;522523;28;1467;-92
2022/07/21 00:46:45;;;;;;;10.30;6.70;;;;;;;;;;523851;28;1194;-91
2022/07/21 00:47:01;;;;;;;8.43;6.70;;;;;;;;;;522594;28;1143;-92
2022/07/21 00:47:20;;;;;;;9.00;6.60;;;;;;;;;;522994;28;797;-91
2022/07/21 00:47:36;;;;;;;8.68;6.72;;;;;;;;;;525724;28;856;-92
2022/07/21 00:47:51;;;;;;;8.90;6.72;;;;;;;;;;524449;28;1199;-91
2022/07/21 00:48:07;;;;;;;9.55;6.72;;;;;;;;;;525430;28;987;-90
2022/07/21 00:48:22;;;;;;;10.93;7.00;;;;;;;;;;525379;28;1172;-91
2022/07/21 00:48:38;;;;;;;11.32;7.15;;;;;;;;;;526567;28;807;-91
2022/07/21 00:48:53;;;;;;;9.27;7.03;;;;;;;;;;525378;28;1234;-90
2022/07/21 00:49:09;;;;;;;9.47;7.03;;;;;;;;;;526473;28;1354;-92
2022/07/21 00:49:25;;;;;;;10.73;7.27;;;;;;;;;;527474;28;792;-92
2022/07/21 00:49:41;;;;;;;10.38;7.40;;;;;;;;;;524910;28;1361;-91
2022/07/21 00:49:58;;;;;;;9.85;7.30;;;;;;;;;;526572;28;1344;-92
2022/07/21 00:50:19;;;;;;;9.95;7.30;;;;;;;;;;527502;28;1320;-92
2022/07/21 00:50:34;;;;;;;10.30;7.25;;;;;;;;;;526417;28;1236;-92
2022/07/21 00:50:49;;;;;;;10.85;7.25;;;;;;;;;;524556;28;1216;-92
2022/07/21 00:51:05;;;;;;;11.20;7.33;;;;;;;;;;524460;28;1381;-91
2022/07/21 00:51:20;;;;;;;10.50;7.28;;;;;;;;;;522506;28;1341;-92
2022/07/21 00:51:36;;;;;;;10.77;7.40;;;;;;;;;;522487;28;1156;-92
2022/07/21 00:51:51;;;;;;;11.23;7.80;;;;;;;;;;523327;28;1276;-92
2022/07/21 00:52:07;;;;;;;10.95;8.00;;;;;;;;;;524668;28;1174;-92
2022/07/21 00:52:22;;;;;;;10.30;7.80;;;;;;;;;;524379;28;1521;-90
2022/07/21 00:52:38;;;;;;;10.00;7.30;;;;;;;;;;524434;28;1281;-91
2022/07/21 00:52:54;;;;;;;10.45;7.38;;;;;;;;;;526364;28;1359;-91
2022/07/21 00:53:09;;;;;;;9.77;7.30;;;;;;;;;;526422;28;1351;-91
2022/07/21 00:53:24;;;;;;;8.93;7.10;;;;;;;;;;524441;28;1158;-90
2022/07/21 00:53:40;;;;;;;9.03;7.00;;;;;;;;;;524414;28;1297;-91
2022/07/21 00:53:55;;;;;;;9.23;6.65;;;;;;;;;;522279;28;1417;-91
2022/07/21 00:54:12;;;;;;;8.87;7.00;;;;;;;;;;522456;28;987;-91
2022/07/21 00:54:28;;;;;;;8.15;6.93;;;;;;;;;;525295;28;1323;-91
2022/07/21 00:54:44;;;;;;;8.50;6.83;;;;;;;;;;524495;28;1174;-90
2022/07/21 00:55:01;;;;;;;9.30;6.97;;;;;;;;;;520129;28;1369;-91
2022/07/21 00:55:19;;;;;;;9.13;7.10;;;;;;;;;;524497;28;1230;-91
2022/07/21 00:55:35;;;;;;;8.13;6.90;;;;;;;;;;524340;28;844;-91
2022/07/21 00:55:51;;;;;;;8.17;7.07;;;;;;;;;;523563;28;1210;-90
2022/07/21 00:56:07;;;;;;;8.73;7.05;;;;;;;;;;522519;28;1267;-91
2022/07/21 00:56:22;;;;;;;8.70;6.95;;;;;;;;;;522465;28;1254;-91
2022/07/21 00:56:39;;;;;;;8.40;6.90;;;;;;;;;;524667;28;1171;-92
2022/07/21 00:56:54;;;;;;;8.77;6.97;;;;;;;;;;524468;28;1327;-90
2022/07/21 00:57:11;;;;;;;9.18;7.25;;;;;;;;;;526245;28;769;-91
2022/07/21 00:57:26;;;;;;;10.15;7.28;;;;;;;;;;526704;28;1302;-91
2022/07/21 00:57:42;;;;;;;9.60;7.13;;;;;;;;;;524556;28;1280;-90
2022/07/21 00:57:58;;;;;;;7.78;6.70;;;;;;;;;;524625;28;886;-91
2022/07/21 00:58:13;;;;;;;7.43;6.63;;;;;;;;;;525253;28;844;-91
2022/07/21 00:58:29;;;;;;;7.82;6.85;;;;;;;;;;524198;28;1898;-90
2022/07/21 00:58:44;;;;;;;8.27;6.80;;;;;;;;;;522769;28;1346;-89
2022/07/21 00:59:00;;;;;;;8.15;6.90;;;;;;;;;;522336;28;1231;-90
2022/07/21 00:59:16;;;;;;;9.00;7.10;;;;;;;;;;520580;28;1251;-90
2022/07/21 00:59:31;;;;;;;8.97;7.23;;;;;;;;;;523049;28;769;-88
2022/07/21 00:59:47;;;;;;;8.45;7.00;;;;;;;;;;524794;28;1065;-88
2022/07/21 01:00:09;;;;;;;8.23;7.00;;;;;;;;;;522414;28;1258;-89
2022/07/21 01:00:27;;;;;;;9.20;6.93;;;;;;;;;;523838;28;1324;-91
2022/07/21 01:00:43;;;;;;;8.68;6.47;;;;;;;;;;522301;28;904;-91
2022/07/21 01:00:58;;;;;;;7.70;6.90;;;;;;;;;;523886;28;1342;-91
2022/07/21 01:01:13;;;;;;;8.00;7.00;;;;;;;;;;525926;28;1254;-91
2022/07/21 01:01:29;;;;;;;9.32;6.78;;;;;;;;;;526457;28;1136;-89
2022/07/21 01:01:45;;;;;;;9.27;6.90;;;;;;;;;;526313;28;904;-90
2022/07/21 01:02:01;;;;;;;8.17;7.17;;;;;;;;;;526584;28;890;-91
2022/07/21 01:02:16;;;;;;;8.60;7.18;;;;;;;;;;525330;28;1606;-91
2022/07/21 01:02:35;;;;;;;9.48;7.22;;;;;;;;;;524931;28;1197;-91
2022/07/21 01:02:51;;;;;;;8.35;7.00;;;;;;;;;;524595;28;1302;-91
2022/07/21 01:03:06;;;;;;;8.43;7.00;;;;;;;;;;525422;28;1269;-90
2022/07/21 01:03:22;;;;;;;8.65;7.18;;;;;;;;;;526570;28;1185;-91
2022/07/21 01:03:37;;;;;;;8.57;7.23;;;;;;;;;;524306;28;1253;-90
2022/07/21 01:03:53;;;;;;;7.97;7.00;;;;;;;;;;524404;28;868;-91
2022/07/21 01:04:08;;;;;;;7.80;7.00;;;;;;;;;;524354;28;955;-88
2022/07/21 01:04:23;;;;;;;8.63;7.10;;;;;;;;;;524256;28;1187;-90
2022/07/21 01:04:39;;;;;;;8.73;7.03;;;;;;;;;;525049;28;903;-90
2022/07/21 01:04:55;;;;;;;8.05;6.88;;;;;;;;;;526924;28;1278;-90
2022/07/21 01:05:14;;;;;;;7.90;6.60;;;;;;;;;;526850;28;953;-91
2022/07/21 01:05:30;;;;;;;8.32;6.65;;;;;;;;;;527338;28;1377;-90
2022/07/21 01:05:45;;;;;;;8.53;6.90;;;;;;;;;;526338;28;1139;-90
2022/07/21 01:06:02;;;;;;;8.57;7.00;;;;;;;;;;524225;28;1224;-88
2022/07/21 01:06:17;;;;;;;8.13;6.63;;;;;;;;;;524168;28;1383;-90
2022/07/21 01:06:32;;;;;;;8.43;6.50;;;;;;;;;;524172;28;1244;-89
2022/07/21 01:06:48;;;;;;;9.13;6.75;;;;;;;;;;525549;28;800;-91
2022/07/21 01:07:05;;;;;;;9.17;6.83;;;;;;;;;;524226;28;1171;-91
2022/07/21 01:07:20;;;;;;;8.40;6.50;;;;;;;;;;527161;28;1247;-90
2022/07/21 01:07:36;;;;;;;7.30;6.53;;;;;;;;;;524326;28;1293;-90
2022/07/21 01:07:53;;;;;;;7.72;6.78;;;;;;;;;;526365;28;1195;-90
2022/07/21 01:08:09;;;;;;;8.18;6.57;;;;;;;;;;526708;28;1030;-91
2022/07/21 01:08:27;;;;;;;7.30;6.28;;;;;;;;;;527612;28;955;-90
2022/07/21 01:08:42;;;;;;;7.53;6.50;;;;;;;;;;528680;28;1230;-90
2022/07/21 01:08:58;;;;;;;7.57;6.77;;;;;;;;;;526625;28;1135;-91
2022/07/21 01:09:14;;;;;;;7.82;6.90;;;;;;;;;;526828;28;986;-89
2022/07/21 01:09:29;;;;;;;8.05;7.10;;;;;;;;;;527580;28;1202;-91
2022/07/21 01:09:45;;;;;;;8.67;7.27;;;;;;;;;;527741;28;1195;-91
2022/07/21 01:10:01;;;;;;;9.45;7.32;;;;;;;;;;527454;28;1330;-91
2022/07/21 01:10:18;;;;;;;8.52;7.18;;;;;;;;;;526736;28;919;-89
2022/07/21 01:10:33;;;;;;;9.07;7.30;;;;;;;;;;526689;28;844;-91
2022/07/21 01:10:49;;;;;;;10.07;7.57;;;;;;;;;;527431;28;835;-91
2022/07/21 01:11:04;;;;;;;9.88;7.50;;;;;;;;;;528592;28;1270;-90
2022/07/21 01:11:21;;;;;;;9.73;7.37;;;;;;;;;;526536;28;1359;-91
2022/07/21 01:11:37;;;;;;;10.05;7.30;;;;;;;;;;527521;28;855;-89
2022/07/21 01:11:52;;;;;;;9.05;7.22;;;;;;;;;;529689;27;1005;-92
2022/07/21 01:12:08;;;;;;;8.10;7.00;;;;;;;;;;528722;28;1243;-91
2022/07/21 01:12:24;;;;;;;8.05;6.70;;;;;;;;;;529301;28;1341;-91
2022/07/21 01:12:40;;;;;;;8.63;6.50;;;;;;;;;;528888;28;1154;-91
2022/07/21 01:12:57;;;;;;;8.68;6.80;;;;;;;;;;526369;28;1311;-91
2022/07/21 01:13:12;;;;;;;7.85;6.63;;;;;;;;;;525380;28;1299;-89
2022/07/21 01:13:29;;;;;;;7.60;6.77;;;;;;;;;;524263;28;1190;-91
2022/07/21 01:13:44;;;;;;;7.88;6.78;;;;;;;;;;524233;28;1331;-90
2022/07/21 01:14:00;;;;;;;9.63;6.80;;;;;;;;;;526481;28;1364;-90
2022/07/21 01:14:16;;;;;;;9.55;6.80;;;;;;;;;;528570;28;1174;-91
2022/07/21 01:14:32;;;;;;;7.70;6.68;;;;;;;;;;528578;28;1203;-91
2022/07/21 01:14:47;;;;;;;7.72;6.70;;;;;;;;;;524278;28;1349;-89
2022/07/21 01:15:04;;;;;;;7.87;6.53;;;;;;;;;;526998;28;1309;-90
2022/07/21 01:15:22;;;;;;;7.45;6.55;;;;;;;;;;522089;28;1303;-89
2022/07/21 01:15:37;;;;;;;7.43;6.55;;;;;;;;;;524195;28;1200;-89
2022/07/21 01:15:53;;;;;;;7.23;6.50;;;;;;;;;;522176;28;1184;-90
2022/07/21 01:16:09;;;;;;;7.30;6.60;;;;;;;;;;522346;28;927;-89
2022/07/21 01:16:24;;;;;;;7.85;6.90;;;;;;;;;;522279;28;1121;-88
2022/07/21 01:16:41;;;;;;;8.50;7.13;;;;;;;;;;523164;28;978;-90
2022/07/21 01:16:57;;;;;;;8.40;6.88;;;;;;;;;;525493;28;899;-90
2022/07/21 01:17:12;;;;;;;8.43;6.82;;;;;;;;;;527236;28;1267;-89
2022/07/21 01:17:28;;;;;;;8.17;6.90;;;;;;;;;;529046;27;1183;-90
2022/07/21 01:17:44;;;;;;;7.95;6.88;;;;;;;;;;531136;27;978;-89
2022/07/21 01:18:00;;;;;;;8.63;7.03;;;;;;;;;;530803;27;811;-90
2022/07/21 01:18:16;;;;;;;10.23;7.40;;;;;;;;;;528645;28;1260;-90
2022/07/21 01:18:31;;;;;;;10.17;7.10;;;;;;;;;;528593;28;1983;-90
2022/07/21 01:18:47;;;;;;;8.43;6.95;;;;;;;;;;528617;28;1206;-89
2022/07/21 01:19:05;;;;;;;8.13;7.25;;;;;;;;;;528479;28;985;-90
2022/07/21 01:19:20;;;;;;;10.00;7.63;;;;;;;;;;529269;27;1222;-90
2022/07/21 01:19:36;;;;;;;9.97;7.57;;;;;;;;;;530665;27;883;-90
2022/07/21 01:19:55;;;;;;;8.63;7.20;;;;;;;;;;530537;27;1045;-90
2022/07/21 01:20:13;;;;;;;8.98;7.45;;;;;;;;;;531182;27;878;-90
2022/07/21 01:20:34;;;;;;;10.23;7.80;;;;;;;;;;530713;27;923;-90
2022/07/21 01:20:54;;;;;;;11.02;8.05;;;;;;;;;;528467;28;1318;-90
2022/07/21 01:21:39;;;;;;;10.25;7.80;;;;;;;;;;526733;28;1325;-90
2022/07/21 01:21:54;;;;;;;10.45;8.18;;;;;;;;;;528044;28;1072;-91
2022/07/21 01:22:11;;;;;;;11.07;8.20;;;;;;;;;;526607;28;1341;-91
2022/07/21 01:22:26;;;;;;;10.93;8.27;;;;;;;;;;524512;28;1420;-90
2022/07/21 01:22:44;;;;;;;10.07;8.10;;;;;;;;;;525958;28;904;-89
2022/07/21 01:23:00;;;;;;;9.55;7.93;;;;;;;;;;527313;28;867;-91
2022/07/21 01:23:15;;;;;;;10.02;8.43;;;;;;;;;;526330;28;1327;-90
2022/07/21 01:23:31;;;;;;;9.70;8.43;;;;;;;;;;526440;28;898;-90
2022/07/21 01:23:47;;;;;;;10.70;7.95;;;;;;;;;;526250;28;1493;-89
2022/07/21 01:24:03;;;;;;;10.33;7.70;;;;;;;;;;527202;28;974;-89
2022/07/21 01:24:19;;;;;;;9.75;7.80;;;;;;;;;;528356;28;1279;-90
2022/07/21 01:24:34;;;;;;;11.20;7.90;;;;;;;;;;526458;28;1164;-91
2022/07/21 01:24:49;;;;;;;9.38;7.72;;;;;;;;;;524502;28;1325;-90
2022/07/21 01:25:06;;;;;;;8.87;7.43;;;;;;;;;;522497;28;1269;-90
2022/07/21 01:25:21;;;;;;;9.90;7.53;;;;;;;;;;520959;28;1345;-90
2022/07/21 01:25:37;;;;;;;9.65;7.93;;;;;;;;;;522415;28;1209;-89
2022/07/21 01:25:52;;;;;;;10.50;7.88;;;;;;;;;;522176;28;1305;-90
2022/07/21 01:26:08;;;;;;;9.83;7.47;;;;;;;;;;522349;28;864;-89
2022/07/21 01:26:24;;;;;;;8.40;7.50;;;;;;;;;;522255;28;1336;-90
2022/07/21 01:26:42;;;;;;;8.50;7.47;;;;;;;;;;523048;28;847;-90
2022/07/21 01:26:57;;;;;;;8.20;7.32;;;;;;;;;;523066;28;1210;-90
2022/07/21 01:27:13;;;;;;;8.43;7.43;;;;;;;;;;522971;28;1248;-90
2022/07/21 01:27:28;;;;;;;9.40;7.35;;;;;;;;;;524292;28;1324;-89
2022/07/21 01:27:44;;;;;;;11.10;7.53;;;;;;;;;;524952;28;1266;-89
2022/07/21 01:27:59;;;;;;;11.40;7.78;;;;;;;;;;527041;28;1344;-89
2022/07/21 01:28:15;;;;;;;9.50;7.67;;;;;;;;;;527212;28;977;-89
2022/07/21 01:28:30;;;;;;;8.77;7.67;;;;;;;;;;526352;28;1181;-90
2022/07/21 01:28:45;;;;;;;8.77;7.45;;;;;;;;;;526749;28;870;-90
2022/07/21 01:29:01;;;;;;;8.63;7.10;;;;;;;;;;528561;28;1014;-90
2022/07/21 01:29:17;;;;;;;9.73;7.20;;;;;;;;;;528416;28;1248;-89
2022/07/21 01:29:35;;;;;;;9.73;7.30;;;;;;;;;;526260;28;1334;-88
2022/07/21 01:29:51;;;;;;;9.43;7.07;;;;;;;;;;527142;28;914;-89
2022/07/21 01:30:08;;;;;;;9.47;7.20;;;;;;;;;;528629;28;961;-90
2022/07/21 01:30:23;;;;;;;8.45;7.10;;;;;;;;;;528974;28;1410;-90
2022/07/21 01:30:39;;;;;;;9.07;7.27;;;;;;;;;;526850;28;1205;-90
2022/07/21 01:30:54;;;;;;;9.60;7.27;;;;;;;;;;526691;28;863;-91
2022/07/21 01:31:10;;;;;;;9.82;6.97;;;;;;;;;;525402;28;1368;-90
2022/07/21 01:31:25;;;;;;;9.03;6.60;;;;;;;;;;527427;28;867;-90
2022/07/21 01:31:43;;;;;;;7.90;6.53;;;;;;;;;;528516;28;1010;-88
2022/07/21 01:31:58;;;;;;;8.27;6.80;;;;;;;;;;526170;28;1446;-89
2022/07/21 01:32:14;;;;;;;8.82;6.80;;;;;;;;;;524217;28;1150;-89
2022/07/21 01:32:29;;;;;;;10.13;7.17;;;;;;;;;;524806;28;1298;-89
2022/07/21 01:32:45;;;;;;;9.93;7.50;;;;;;;;;;524242;28;1332;-90
2022/07/21 01:33:01;;;;;;;8.13;7.32;;;;;;;;;;525843;28;884;-90
2022/07/21 01:33:16;;;;;;;8.32;6.93;;;;;;;;;;526623;28;1026;-90
2022/07/21 01:33:32;;;;;;;8.80;6.80;;;;;;;;;;526474;28;1305;-90
2022/07/21 01:33:48;;;;;;;9.07;7.13;;;;;;;;;;526505;28;1354;-90
2022/07/21 01:34:03;;;;;;;8.95;7.25;;;;;;;;;;524372;28;1399;-89
2022/07/21 01:34:19;;;;;;;8.35;7.20;;;;;;;;;;522734;28;1296;-91
2022/07/21 01:34:34;;;;;;;8.10;7.20;;;;;;;;;;524753;28;1260;-90
2022/07/21 01:34:50;;;;;;;8.93;7.40;;;;;;;;;;526459;28;1296;-90
2022/07/21 01:35:08;;;;;;;10.43;7.43;;;;;;;;;;526566;28;919;-90
2022/07/21 01:35:24;;;;;;;8.15;7.28;;;;;;;;;;526523;28;1213;-90
2022/07/21 01:35:39;;;;;;;7.80;7.00;;;;;;;;;;527313;28;1152;-90
2022/07/21 01:35:55;;;;;;;8.32;6.80;;;;;;;;;;527480;28;749;-90
2022/07/21 01:36:10;;;;;;;7.90;6.80;;;;;;;;;;528815;28;942;-90
2022/07/21 01:36:26;;;;;;;7.88;6.93;;;;;;;;;;528653;28;883;-90
2022/07/21 01:36:41;;;;;;;7.87;6.87;;;;;;;;;;529481;27;1282;-90
2022/07/21 01:36:57;;;;;;;8.00;6.80;;;;;;;;;;530921;27;1014;-90
2022/07/21 01:37:13;;;;;;;8.97;6.97;;;;;;;;;;528246;28;1157;-91
2022/07/21 01:37:30;;;;;;;9.25;7.20;;;;;;;;;;527229;28;951;-91
2022/07/21 01:37:46;;;;;;;8.68;6.78;;;;;;;;;;528464;28;1348;-88
2022/07/21 01:38:03;;;;;;;7.72;6.72;;;;;;;;;;528535;28;1042;-90
2022/07/21 01:41:43;;;;;;;7.70;6.50;;;;;;;;;;530707;27;717;-90
2022/07/21 01:41:59;;;;;;;8.50;6.65;;;;;;;;;;530527;27;1313;-90
2022/07/21 01:42:14;;;;;;;8.25;6.30;;;;;;;;;;528536;28;1214;-90